Time;durP1;ratioP1;P1;durP2;ratioP2;P2;SDS_P1;SDS_P2;PMS_P1;PMS_P2;Temp;Humidity;BMP_temperature;BMP_pressure;BME280_temperature;BME280_humidity;BME280_pressure;Samples;Min_cycle;Max_cycle;Signal;HPM_P1;HPM_P2
2021/12/15 00:00:08;;;;;;;41.60;19.90;;;;;;;4.98;90.89;101455.39;106588;1319;22454;-62
2021/12/15 00:02:59;;;;;;;46.40;20.30;;;;;;;4.96;90.92;101453.52;106562;1319;22238;-62
2021/12/15 00:05:31;;;;;;;42.10;21.20;;;;;;;4.95;91.01;101450.21;106619;1312;22481;-61
2021/12/15 00:08:07;;;;;;;45.90;20.20;;;;;;;4.94;90.96;101448.65;106598;1318;22994;-62
2021/12/15 00:10:40;;;;;;;47.90;21.50;;;;;;;4.93;91.05;101449.91;106576;1312;22270;-61
2021/12/15 00:13:12;;;;;;;47.90;21.70;;;;;;;4.93;91.02;101455.05;106535;1319;22512;-61
2021/12/15 00:15:44;;;;;;;46.30;23.00;;;;;;;4.93;91.03;101452.67;106630;1318;22273;-61
2021/12/15 00:18:16;;;;;;;51.30;23.30;;;;;;;4.92;91.02;101450.87;106543;1318;22809;-61
2021/12/15 00:20:48;;;;;;;49.50;21.50;;;;;;;4.92;91.04;101449.46;106618;1318;22402;-61
2021/12/15 00:23:19;;;;;;;51.30;22.50;;;;;;;4.91;91.03;101445.20;106648;1316;22444;-61
2021/12/15 00:25:50;;;;;;;44.10;19.20;;;;;;;4.91;91.01;101445.74;106582;1316;22431;-61
2021/12/15 00:28:23;;;;;;;45.00;21.00;;;;;;;4.92;91.07;101448.04;106646;1319;22286;-62
2021/12/15 00:30:54;;;;;;;42.90;20.50;;;;;;;4.92;91.11;101445.97;106701;1316;23666;-61
2021/12/15 00:33:25;;;;;;;41.50;19.00;;;;;;;4.94;91.09;101443.59;106724;1317;22291;-61
2021/12/15 00:35:56;;;;;;;42.60;20.20;;;;;;;4.95;91.09;101443.96;106649;1318;22485;-61
2021/12/15 00:38:27;;;;;;;48.00;21.00;;;;;;;4.97;91.15;101438.96;106650;1317;22422;-61
2021/12/15 00:40:59;;;;;;;42.20;19.40;;;;;;;4.99;91.21;101440.30;106726;1317;22901;-61
2021/12/15 00:43:31;;;;;;;44.50;20.90;;;;;;;5.00;91.18;101446.69;106736;1316;23169;-61
2021/12/15 00:46:03;;;;;;;45.90;21.60;;;;;;;5.01;91.21;101443.58;106632;1318;22516;-60
2021/12/15 00:48:34;;;;;;;44.10;19.40;;;;;;;5.05;91.25;101441.80;106755;1319;22454;-61
2021/12/15 00:51:06;;;;;;;44.20;19.50;;;;;;;5.06;91.15;101443.68;106669;1317;23017;-60
2021/12/15 00:53:37;;;;;;;39.70;18.50;;;;;;;5.06;91.18;101451.67;106726;1315;22549;-61
2021/12/15 00:56:10;;;;;;;40.30;18.80;;;;;;;5.07;91.17;101452.77;106647;1316;23147;-61
2021/12/15 00:58:42;;;;;;;41.80;19.10;;;;;;;5.08;91.10;101451.65;106748;1319;22460;-61
2021/12/15 01:01:13;;;;;;;46.30;19.60;;;;;;;5.08;91.14;101454.58;106724;1318;22460;-61
2021/12/15 01:03:45;;;;;;;49.00;21.20;;;;;;;5.08;91.13;101456.79;106622;1319;22428;-61
2021/12/15 01:06:20;;;;;;;40.60;19.20;;;;;;;5.07;91.18;101456.88;106594;1319;22390;-61
2021/12/15 01:08:57;;;;;;;41.50;18.70;;;;;;;5.07;91.20;101455.60;106600;1318;22384;-61
2021/12/15 01:11:49;;;;;;;46.50;21.00;;;;;;;5.08;91.20;101461.22;106566;1318;22459;-62
2021/12/15 01:19:46;;;;;;;42.00;18.90;;;;;;;5.09;91.23;101461.92;106579;1312;22338;-63
2021/12/15 01:20:22;;;;;;;41.60;18.70;;;;;;;5.09;91.31;101467.61;106631;1318;23780;-61
2021/12/15 01:22:57;;;;;;;47.50;19.60;;;;;;;5.11;91.36;101465.46;106665;1319;22403;-61
2021/12/15 01:25:31;;;;;;;45.20;20.10;;;;;;;5.12;91.33;101467.90;106726;1318;22468;-61
2021/12/15 01:28:03;;;;;;;45.90;21.10;;;;;;;5.13;91.34;101470.95;106607;1313;22943;-62
2021/12/15 01:30:40;;;;;;;44.10;19.00;;;;;;;5.15;91.32;101467.95;106608;1316;22304;-62
2021/12/15 01:33:12;;;;;;;48.60;21.40;;;;;;;5.16;91.36;101469.74;106607;1316;22359;-62
2021/12/15 01:35:47;;;;;;;48.50;21.10;;;;;;;5.17;91.41;101466.51;106159;1319;22495;-62
2021/12/15 01:38:21;;;;;;;48.20;20.80;;;;;;;5.18;91.44;101471.79;106129;1319;22549;-62
2021/12/15 01:40:52;;;;;;;56.40;22.30;;;;;;;5.19;91.44;101471.87;106667;1318;23077;-62
2021/12/15 01:43:37;;;;;;;44.80;20.80;;;;;;;5.21;91.49;101470.48;106730;1315;22607;-62
2021/12/15 01:49:02;;;;;;;49.20;20.80;;;;;;;5.25;91.57;101472.73;102679;1319;22961;-61
2021/12/15 01:51:33;;;;;;;45.30;20.20;;;;;;;5.25;91.60;101471.39;102616;1319;24385;-61
2021/12/15 01:54:06;;;;;;;44.40;19.20;;;;;;;5.25;91.66;101466.50;106644;1317;23209;-61
2021/12/15 01:56:38;;;;;;;40.20;18.10;;;;;;;5.25;91.73;101469.17;106617;1316;22420;-62
2021/12/15 01:59:11;;;;;;;46.20;20.50;;;;;;;5.25;91.76;101472.18;106615;1319;22322;-62
2021/12/15 02:01:42;;;;;;;44.30;19.60;;;;;;;5.26;91.90;101472.73;106621;1319;22501;-62
2021/12/15 02:04:16;;;;;;;49.10;21.50;;;;;;;5.26;91.84;101471.99;106609;1318;22402;-62
2021/12/15 02:06:47;;;;;;;44.40;20.00;;;;;;;5.27;91.87;101471.30;105602;1303;22575;-61
2021/12/15 02:09:36;;;;;;;50.00;21.90;;;;;;;5.27;91.79;101478.96;106743;1316;22441;-62
2021/12/15 02:12:09;;;;;;;45.40;19.90;;;;;;;5.28;91.95;101478.39;106746;1314;22302;-62
2021/12/15 02:14:40;;;;;;;49.90;22.40;;;;;;;5.28;92.00;101478.80;106687;1318;22531;-62
2021/12/15 02:17:12;;;;;;;47.70;22.50;;;;;;;5.29;92.07;101479.96;106661;1316;23400;-61
2021/12/15 02:19:44;;;;;;;45.80;19.40;;;;;;;5.29;92.07;101477.20;106746;1318;22537;-62
2021/12/15 02:22:15;;;;;;;50.10;22.90;;;;;;;5.29;92.09;101480.20;106718;1317;22474;-62
2021/12/15 02:24:50;;;;;;;49.50;21.60;;;;;;;5.29;92.19;101478.86;106805;1318;22465;-62
2021/12/15 02:27:21;;;;;;;49.90;22.50;;;;;;;5.30;92.17;101482.17;106759;1316;22620;-62
2021/12/15 02:29:58;;;;;;;46.00;20.90;;;;;;;5.31;92.24;101481.77;106763;1317;23150;-62
2021/12/15 02:32:39;;;;;;;49.30;20.90;;;;;;;5.31;92.30;101486.03;106603;1312;22439;-62
2021/12/15 02:37:59;;;;;;;43.90;20.40;;;;;;;5.31;92.40;101486.73;106670;1316;22325;-62
2021/12/15 02:40:31;;;;;;;51.20;23.00;;;;;;;5.31;92.50;101490.14;106709;1319;22338;-62
2021/12/15 02:43:03;;;;;;;46.80;20.70;;;;;;;5.32;92.49;101486.02;106736;1316;22438;-62
2021/12/15 02:45:35;;;;;;;47.60;23.10;;;;;;;5.33;92.48;101486.56;106694;1319;22407;-62
2021/12/15 02:48:07;;;;;;;48.00;21.80;;;;;;;5.33;92.50;101484.91;106571;1312;22277;-62
2021/12/15 02:50:38;;;;;;;50.90;21.60;;;;;;;5.33;92.59;101490.12;106714;1318;23418;-62
2021/12/15 02:53:10;;;;;;;50.90;20.60;;;;;;;5.33;92.64;101492.82;106733;1319;22390;-62
2021/12/15 02:55:41;;;;;;;47.40;21.30;;;;;;;5.33;92.67;101492.73;106676;1312;22413;-62
2021/12/15 02:58:13;;;;;;;51.40;22.80;;;;;;;5.32;92.71;101497.66;106674;1316;23374;-62
2021/12/15 03:00:50;;;;;;;48.90;22.10;;;;;;;5.31;92.78;101504.55;106407;1315;22593;-62
2021/12/15 03:03:43;;;;;;;47.90;21.70;;;;;;;5.29;92.74;101504.17;102952;1312;22698;-62
2021/12/15 03:06:19;;;;;;;46.60;20.40;;;;;;;5.30;92.88;101502.98;106689;1316;22299;-62
2021/12/15 03:08:57;;;;;;;54.00;22.60;;;;;;;5.29;92.95;101502.59;106532;1312;22534;-62
2021/12/15 03:17:07;;;;;;;52.30;21.80;;;;;;;5.31;93.13;101499.95;106557;1312;22557;-63
2021/12/15 03:19:38;;;;;;;50.00;21.50;;;;;;;5.32;93.10;101504.85;106564;1319;22517;-62
2021/12/15 03:22:09;;;;;;;48.00;21.00;;;;;;;5.33;93.19;101505.48;106552;1319;23303;-62
2021/12/15 03:24:40;;;;;;;51.40;23.60;;;;;;;5.33;93.24;101500.02;106093;1320;22407;-62
2021/12/15 03:27:17;;;;;;;50.20;21.40;;;;;;;5.34;93.20;101501.98;106514;1318;22578;-62
2021/12/15 03:35:35;;;;;;;58.50;23.20;;;;;;;5.35;93.40;101509.73;106540;1315;22437;-62
2021/12/15 03:38:06;;;;;;;51.80;20.40;;;;;;;5.35;93.49;101514.47;106573;1317;23519;-62
2021/12/15 03:40:41;;;;;;;49.20;20.20;;;;;;;5.35;93.51;101520.64;106588;1319;23160;-62
2021/12/15 03:43:14;;;;;;;51.50;21.70;;;;;;;5.35;93.54;101519.14;106573;1319;22490;-62
2021/12/15 03:45:49;;;;;;;51.80;21.40;;;;;;;5.36;93.62;101520.86;106573;1320;23357;-62
2021/12/15 03:48:25;;;;;;;51.90;19.80;;;;;;;5.38;93.60;101519.98;106553;1318;22649;-62
2021/12/15 03:50:58;;;;;;;48.00;20.90;;;;;;;5.38;93.63;101519.40;106508;1320;23238;-62
2021/12/15 03:53:29;;;;;;;50.70;20.70;;;;;;;5.39;93.54;101517.42;106486;1313;22325;-62
2021/12/15 03:56:02;;;;;;;52.70;21.90;;;;;;;5.40;93.60;101523.05;106575;1313;23206;-62
2021/12/15 03:58:33;;;;;;;50.70;21.80;;;;;;;5.39;93.62;101521.70;106560;1313;22636;-62
2021/12/15 04:01:11;;;;;;;49.90;20.20;;;;;;;5.40;93.63;101519.34;106582;1319;22421;-62
2021/12/15 04:03:44;;;;;;;54.20;21.90;;;;;;;5.40;93.67;101518.54;106559;1319;22408;-62
2021/12/15 04:06:21;;;;;;;50.90;21.10;;;;;;;5.40;93.70;101519.77;106581;1316;23017;-62
2021/12/15 04:08:52;;;;;;;49.90;20.40;;;;;;;5.41;93.75;101520.66;106470;1318;22313;-62
2021/12/15 04:11:26;;;;;;;48.40;20.80;;;;;;;5.40;93.74;101519.08;106438;1316;22426;-62
2021/12/15 04:14:00;;;;;;;48.70;19.00;;;;;;;5.39;93.75;101520.83;106558;1319;22485;-62
2021/12/15 04:16:57;;;;;;;57.50;21.10;;;;;;;5.39;93.85;101524.39;106564;1313;22460;-62
2021/12/15 04:19:30;;;;;;;53.30;21.20;;;;;;;5.39;93.86;101528.83;106539;1320;22610;-62
2021/12/15 04:22:02;;;;;;;51.90;20.70;;;;;;;5.39;93.98;101530.09;106576;1320;22496;-62
2021/12/15 04:24:33;;;;;;;52.80;21.70;;;;;;;5.40;94.06;101532.05;106582;1312;22289;-62
2021/12/15 04:27:06;;;;;;;52.60;19.70;;;;;;;5.40;94.07;101532.45;106541;1317;22443;-62
2021/12/15 04:29:39;;;;;;;56.00;19.50;;;;;;;5.40;94.09;101534.83;106562;1317;22285;-62
2021/12/15 04:32:14;;;;;;;54.40;19.80;;;;;;;5.40;94.11;101537.91;106626;1313;22301;-62
2021/12/15 04:34:46;;;;;;;56.20;22.40;;;;;;;5.41;94.13;101541.79;106553;1317;22421;-63
2021/12/15 04:37:17;;;;;;;49.70;20.20;;;;;;;5.42;94.22;101541.52;106576;1312;22550;-62
2021/12/15 04:39:48;;;;;;;60.60;23.30;;;;;;;5.43;94.22;101549.66;106521;1318;22606;-62
2021/12/15 04:42:22;;;;;;;60.90;23.40;;;;;;;5.44;94.26;101552.67;105384;1318;26671;-61
2021/12/15 04:44:56;;;;;;;58.40;21.50;;;;;;;5.45;94.25;101552.64;106616;1319;22438;-62
2021/12/15 04:47:28;;;;;;;53.40;20.20;;;;;;;5.46;94.36;101554.53;106609;1313;22431;-62
2021/12/15 04:49:59;;;;;;;49.60;18.90;;;;;;;5.47;94.33;101550.58;106231;1313;24713;-62
2021/12/15 04:52:32;;;;;;;58.60;20.60;;;;;;;5.47;94.41;101553.10;106579;1317;22308;-62
2021/12/15 04:55:07;;;;;;;61.50;22.50;;;;;;;5.47;94.37;101555.64;104232;1313;346270;-61
2021/12/15 04:57:39;;;;;;;60.30;22.90;;;;;;;5.48;94.46;101559.81;106489;1317;22551;-61
2021/12/15 05:00:15;;;;;;;55.60;20.80;;;;;;;5.48;94.45;101562.65;106505;1320;22414;-63
2021/12/15 05:02:47;;;;;;;61.80;22.70;;;;;;;5.49;94.47;101555.77;106508;1318;23103;-63
2021/12/15 05:05:20;;;;;;;71.00;23.60;;;;;;;5.51;94.53;101554.00;106602;1319;22420;-63
2021/12/15 05:07:52;;;;;;;59.00;20.90;;;;;;;5.53;94.50;101556.84;106556;1317;23507;-63
2021/12/15 05:10:23;;;;;;;63.90;22.70;;;;;;;5.54;94.54;101562.84;106585;1312;22426;-64
2021/12/15 05:12:57;;;;;;;58.00;21.90;;;;;;;5.55;94.51;101566.15;106582;1318;22283;-64
2021/12/15 05:15:29;;;;;;;58.60;23.60;;;;;;;5.56;94.42;101566.38;104201;1312;22580;-64
2021/12/15 05:18:00;;;;;;;57.30;23.40;;;;;;;5.56;94.48;101568.44;102909;1319;23114;-63
2021/12/15 05:20:33;;;;;;;62.30;23.00;;;;;;;5.56;94.53;101575.88;103030;1312;23948;-64
2021/12/15 05:23:04;;;;;;;60.10;21.10;;;;;;;5.56;94.48;101577.23;103012;1312;24075;-64
2021/12/15 05:25:36;;;;;;;57.20;21.00;;;;;;;5.56;94.56;101575.23;102862;1313;26653;-63
2021/12/15 05:28:08;;;;;;;51.90;20.90;;;;;;;5.56;94.54;101573.75;102764;1312;22577;-64
2021/12/15 05:30:40;;;;;;;69.60;24.30;;;;;;;5.56;94.69;101571.77;102782;1312;22646;-65
2021/12/15 05:33:11;;;;;;;65.10;28.10;;;;;;;5.57;94.65;101573.33;103048;1313;22567;-60
2021/12/15 05:35:43;;;;;;;70.30;28.40;;;;;;;5.57;94.67;101573.41;102808;1319;22616;-61
2021/12/15 05:38:17;;;;;;;74.20;28.50;;;;;;;5.57;94.66;101569.77;102867;1312;22807;-60
2021/12/15 05:40:49;;;;;;;66.40;25.80;;;;;;;5.57;94.70;101572.54;102874;1312;25519;-61
2021/12/15 05:43:20;;;;;;;81.10;30.10;;;;;;;5.57;94.67;101572.14;102737;1312;22558;-61
2021/12/15 05:45:52;;;;;;;71.40;25.90;;;;;;;5.57;94.72;101575.30;103294;1312;24187;-61
2021/12/15 05:48:23;;;;;;;67.10;26.70;;;;;;;5.57;94.81;101572.30;102488;1312;22590;-61
2021/12/15 05:51:00;;;;;;;70.90;25.90;;;;;;;5.56;94.72;101573.11;102601;1318;22692;-61
2021/12/15 05:53:31;;;;;;;76.90;27.10;;;;;;;5.56;94.79;101580.80;102861;1313;22664;-61
2021/12/15 05:56:02;;;;;;;62.90;23.50;;;;;;;5.55;94.78;101585.45;102821;1318;25391;-62
2021/12/15 05:58:34;;;;;;;66.90;24.90;;;;;;;5.55;94.83;101589.90;102926;1317;22655;-61
2021/12/15 06:01:06;;;;;;;68.50;25.40;;;;;;;5.54;94.91;101594.66;102773;1318;22567;-61
2021/12/15 06:03:37;;;;;;;68.20;25.50;;;;;;;5.54;94.93;101591.58;102886;1313;22573;-61
2021/12/15 06:06:09;;;;;;;64.60;24.90;;;;;;;5.54;95.01;101594.83;102861;1316;23224;-62
2021/12/15 06:08:40;;;;;;;66.20;23.90;;;;;;;5.55;94.99;101591.79;103083;1312;25387;-61
2021/12/15 06:11:12;;;;;;;67.70;23.50;;;;;;;5.55;95.03;101590.52;103094;1312;25391;-61
2021/12/15 06:13:47;;;;;;;61.80;23.80;;;;;;;5.55;95.13;101594.95;102802;1314;24221;-61
2021/12/15 06:16:23;;;;;;;68.30;25.70;;;;;;;5.55;95.12;101596.30;103057;1316;24345;-61
2021/12/15 06:18:55;;;;;;;71.40;26.90;;;;;;;5.56;95.09;101603.11;102992;1318;24314;-61
2021/12/15 06:21:27;;;;;;;69.70;24.30;;;;;;;5.57;95.11;101611.08;103065;1312;25230;-61
2021/12/15 06:23:59;;;;;;;63.30;21.00;;;;;;;5.57;95.10;101616.14;103133;1313;23940;-62
2021/12/15 06:26:30;;;;;;;64.10;22.40;;;;;;;5.57;95.13;101610.60;103202;1312;24273;-62
2021/12/15 06:29:02;;;;;;;65.80;25.60;;;;;;;5.57;95.10;101608.39;102977;1313;25203;-61
2021/12/15 06:31:33;;;;;;;72.10;24.30;;;;;;;5.57;95.15;101608.55;102955;1312;22601;-61
2021/12/15 06:34:05;;;;;;;72.90;25.00;;;;;;;5.59;95.20;101612.10;102985;1312;22586;-62
2021/12/15 06:36:37;;;;;;;73.20;26.10;;;;;;;5.59;95.17;101616.05;103018;1315;24989;-61
2021/12/15 06:39:10;;;;;;;64.10;22.90;;;;;;;5.61;95.16;101622.77;102921;1318;23574;-61
2021/12/15 06:41:41;;;;;;;64.80;25.60;;;;;;;5.62;95.16;101620.70;103004;1317;23973;-62
2021/12/15 06:44:14;;;;;;;64.70;25.70;;;;;;;5.61;95.10;101620.38;102985;1317;22577;-61
2021/12/15 06:47:19;;;;;;;60.20;24.70;;;;;;;5.62;95.22;101627.50;103037;1317;22697;-62
2021/12/15 06:58:17;;;;;;;64.90;21.60;;;;;;;5.64;95.31;101635.39;103292;1312;26129;-61
2021/12/15 07:00:51;;;;;;;63.10;21.70;;;;;;;5.64;95.36;101637.84;103036;1312;22554;-62
2021/12/15 07:03:24;;;;;;;56.90;18.40;;;;;;;5.63;95.35;101642.60;103073;1318;22970;-62
2021/12/15 07:05:56;;;;;;;65.40;20.40;;;;;;;5.63;95.40;101641.33;103148;1312;25377;-62
2021/12/15 07:08:29;;;;;;;51.80;18.30;;;;;;;5.62;95.60;101636.05;103430;1313;25325;-62
2021/12/15 07:11:05;;;;;;;61.00;19.90;;;;;;;5.63;95.61;101641.80;103836;1316;22607;-62
2021/12/15 07:13:37;;;;;;;60.60;21.00;;;;;;;5.63;95.64;101642.36;102861;1313;25416;-62
2021/12/15 07:16:10;;;;;;;55.60;20.80;;;;;;;5.64;95.69;101646.16;102849;1318;22596;-61
2021/12/15 07:18:50;;;;;;;58.30;21.00;;;;;;;5.64;95.71;101643.70;102863;1312;22590;-61
2021/12/15 07:21:24;;;;;;;60.00;20.10;;;;;;;5.65;95.77;101648.04;102713;1317;23043;-61
2021/12/15 07:23:56;;;;;;;60.00;19.90;;;;;;;5.66;95.86;101653.50;103117;1319;22583;-62
2021/12/15 07:26:28;;;;;;;59.20;19.30;;;;;;;5.67;95.87;101658.54;103051;1313;24250;-61
2021/12/15 07:28:59;;;;;;;55.20;20.00;;;;;;;5.68;95.89;101654.66;102640;1313;22561;-61
2021/12/15 07:31:31;;;;;;;53.60;18.90;;;;;;;5.69;95.87;101656.23;103070;1317;25398;-61
2021/12/15 07:34:03;;;;;;;64.90;21.30;;;;;;;5.70;95.83;101658.91;103271;1313;24284;-61
2021/12/15 07:36:34;;;;;;;67.50;23.50;;;;;;;5.71;96.02;101657.09;103458;1312;22641;-61
2021/12/15 07:39:10;;;;;;;60.00;20.30;;;;;;;5.72;95.97;101659.14;102860;1318;22590;-62
2021/12/15 07:41:49;;;;;;;61.40;21.90;;;;;;;5.72;95.94;101660.08;102782;1320;22557;-62
2021/12/15 07:44:23;;;;;;;64.30;23.10;;;;;;;5.74;96.03;101665.77;103105;1319;25339;-61
2021/12/15 07:46:55;;;;;;;70.20;23.40;;;;;;;5.75;96.01;101661.33;102797;1315;22570;-61
2021/12/15 07:49:29;;;;;;;63.90;22.80;;;;;;;5.75;96.07;101661.79;102754;1315;23093;-62
2021/12/15 07:52:03;;;;;;;68.10;23.60;;;;;;;5.78;96.10;101659.40;103158;1317;22620;-62
2021/12/15 07:54:36;;;;;;;62.10;22.40;;;;;;;5.80;96.17;101657.95;102848;1316;22666;-61
2021/12/15 07:57:16;;;;;;;67.80;24.00;;;;;;;5.81;96.16;101654.92;102775;1317;25541;-61
2021/12/15 07:59:48;;;;;;;63.40;21.70;;;;;;;5.83;96.25;101655.86;102687;1318;22686;-61
2021/12/15 08:02:19;;;;;;;63.20;23.70;;;;;;;5.84;96.39;101653.16;102856;1312;25339;-61
2021/12/15 08:04:51;;;;;;;59.10;20.80;;;;;;;5.84;96.29;101656.34;102764;1316;24459;-62
2021/12/15 08:07:23;;;;;;;71.10;23.10;;;;;;;5.86;96.38;101657.91;103815;1299;25274;-61
2021/12/15 08:09:54;;;;;;;65.20;21.50;;;;;;;5.87;96.36;101656.08;103611;1312;24222;-61
2021/12/15 08:12:27;;;;;;;54.90;20.20;;;;;;;5.89;96.47;101655.34;103746;1312;22531;-62
2021/12/15 08:14:59;;;;;;;64.60;22.70;;;;;;;5.92;96.43;101652.54;103835;1319;25290;-61
2021/12/15 08:17:29;;;;;;;64.30;22.30;;;;;;;5.94;96.41;101654.65;103705;1315;24252;-61
2021/12/15 08:20:01;;;;;;;60.00;20.60;;;;;;;5.97;96.51;101658.50;103696;1315;22564;-61
2021/12/15 08:22:32;;;;;;;59.30;21.50;;;;;;;5.98;96.53;101655.40;103716;1315;22576;-63
2021/12/15 08:25:03;;;;;;;71.60;22.30;;;;;;;6.00;96.56;101652.27;103805;1313;22538;-60
2021/12/15 08:27:35;;;;;;;66.60;23.60;;;;;;;6.03;96.52;101654.86;103691;1313;22671;-61
2021/12/15 08:30:11;;;;;;;63.60;23.70;;;;;;;6.06;96.56;101661.23;103718;1312;24516;-62
2021/12/15 08:32:43;;;;;;;59.80;22.60;;;;;;;6.09;96.57;101659.70;103720;1313;24152;-61
2021/12/15 08:35:15;;;;;;;57.10;20.50;;;;;;;6.12;96.47;101659.89;103695;1316;25096;-60
2021/12/15 08:37:47;;;;;;;66.20;23.80;;;;;;;6.15;96.43;101658.83;103613;1313;22577;-62
2021/12/15 08:40:20;;;;;;;66.80;23.50;;;;;;;6.17;96.44;101659.04;103682;1312;25399;-62
2021/12/15 08:42:52;;;;;;;57.80;20.20;;;;;;;6.20;96.53;101663.77;103509;1317;22699;-62
2021/12/15 08:45:24;;;;;;;58.80;22.20;;;;;;;6.23;96.48;101660.01;103485;1315;22567;-61
2021/12/15 08:47:58;;;;;;;59.30;22.90;;;;;;;6.26;96.46;101661.79;103830;1319;22633;-62
2021/12/15 08:50:32;;;;;;;60.50;23.20;;;;;;;6.28;96.46;101666.04;103993;1316;25251;-62
2021/12/15 08:53:05;;;;;;;48.20;20.00;;;;;;;6.31;96.55;101667.27;103916;1316;22513;-62
2021/12/15 08:55:36;;;;;;;54.00;19.70;;;;;;;6.34;96.44;101667.31;103844;1312;24345;-62
2021/12/15 08:58:10;;;;;;;47.80;19.00;;;;;;;6.36;96.37;101668.79;103840;1316;25456;-61
2021/12/15 09:00:44;;;;;;;48.60;18.50;;;;;;;6.38;96.35;101674.47;103708;1313;22574;-62
2021/12/15 09:03:15;;;;;;;42.80;15.80;;;;;;;6.40;96.41;101677.70;103726;1312;22664;-62
2021/12/15 09:05:51;;;;;;;41.30;16.40;;;;;;;6.40;96.37;101679.91;103835;1319;24224;-62
2021/12/15 09:08:24;;;;;;;36.60;14.60;;;;;;;6.41;96.33;101678.94;103660;1313;22780;-62
2021/12/15 09:10:57;;;;;;;42.50;15.70;;;;;;;6.41;96.35;101680.05;103687;1312;24233;-62
2021/12/15 09:13:31;;;;;;;35.30;14.80;;;;;;;6.43;96.27;101683.77;103957;1313;22578;-62
2021/12/15 09:16:06;;;;;;;37.60;14.20;;;;;;;6.43;96.35;101685.73;103873;1314;22606;-62
2021/12/15 09:18:39;;;;;;;37.50;14.70;;;;;;;6.44;96.39;101678.11;103761;1315;24311;-62
2021/12/15 09:21:17;;;;;;;41.60;16.60;;;;;;;6.45;96.49;101678.10;103677;1314;26303;-63
2021/12/15 09:23:49;;;;;;;35.70;14.40;;;;;;;6.46;96.48;101675.02;103808;1312;25578;-61
2021/12/15 09:26:20;;;;;;;33.50;13.90;;;;;;;6.48;96.40;101676.17;103734;1312;23134;-62
2021/12/15 09:28:52;;;;;;;34.50;13.70;;;;;;;6.49;96.55;101669.48;103672;1316;25424;-62
2021/12/15 09:31:23;;;;;;;33.30;12.50;;;;;;;6.52;96.59;101665.49;103565;1314;25572;-62
2021/12/15 09:33:56;;;;;;;33.00;13.50;;;;;;;6.53;96.48;101665.00;103579;1316;24168;-62
2021/12/15 09:36:29;;;;;;;36.90;14.50;;;;;;;6.55;96.44;101662.68;103977;1312;22542;-61
2021/12/15 09:39:06;;;;;;;38.40;15.00;;;;;;;6.58;96.42;101664.52;104747;1318;22966;-62
2021/12/15 09:41:37;;;;;;;40.30;15.40;;;;;;;6.61;96.54;101662.18;104321;1317;22577;-62
2021/12/15 09:44:12;;;;;;;36.80;15.30;;;;;;;6.65;96.71;101658.50;103792;1312;25278;-61
2021/12/15 10:04:16;;;;;;;29.40;10.60;;;;;;;6.96;96.52;101642.80;103698;1313;22631;-63
2021/12/15 10:07:15;;;;;;;26.30;10.70;;;;;;;6.97;96.25;101646.34;103617;1313;24250;-63
2021/12/15 10:18:36;;;;;;;26.10;9.40;;;;;;;6.95;95.77;101644.16;103781;1310;25839;-62
2021/12/15 10:21:09;;;;;;;23.50;8.80;;;;;;;6.94;95.75;101641.08;103856;1313;22574;-61
2021/12/15 10:23:45;;;;;;;26.40;9.70;;;;;;;6.94;95.80;101645.44;103782;1313;23853;-62
2021/12/15 10:27:01;;;;;;;28.50;11.00;;;;;;;6.95;95.90;101643.60;103816;1312;22574;-62
2021/12/15 10:29:32;;;;;;;25.60;9.60;;;;;;;6.97;95.85;101644.06;103973;1316;22823;-65
2021/12/15 10:32:06;;;;;;;24.40;10.30;;;;;;;6.97;95.79;101643.48;103823;1314;22604;-62
2021/12/15 10:34:40;;;;;;;28.40;9.30;;;;;;;6.97;95.68;101645.47;103917;1312;24387;-62
2021/12/15 10:37:13;;;;;;;29.00;9.10;;;;;;;6.98;95.83;101644.83;103825;1316;22588;-62
2021/12/15 10:40:23;;;;;;;26.50;10.40;;;;;;;7.00;95.89;101648.69;103684;1314;22555;-62
2021/12/15 10:43:06;;;;;;;28.30;11.60;;;;;;;7.01;95.73;101644.55;103708;1312;22603;-62
2021/12/15 10:45:42;;;;;;;22.20;8.50;;;;;;;7.00;95.67;101642.80;103882;1312;23236;-62
2021/12/15 10:48:24;;;;;;;20.70;8.60;;;;;;;7.01;95.72;101639.48;103790;1316;24032;-62
2021/12/15 10:50:56;;;;;;;19.80;7.30;;;;;;;7.02;95.80;101640.16;103774;1318;22524;-62
2021/12/15 10:53:37;;;;;;;19.70;7.70;;;;;;;7.04;95.64;101636.00;103955;1312;22635;-62
2021/12/15 10:56:16;;;;;;;18.40;7.00;;;;;;;7.05;95.69;101629.95;103767;1316;22530;-63
2021/12/15 10:58:53;;;;;;;20.90;8.20;;;;;;;7.07;95.64;101628.74;103798;1312;23527;-62
2021/12/15 11:01:38;;;;;;;20.80;8.00;;;;;;;7.09;95.62;101628.46;103791;1312;22580;-62
2021/12/15 11:04:30;;;;;;;20.90;8.10;;;;;;;7.10;95.68;101624.79;103678;1312;22531;-62
2021/12/15 11:07:08;;;;;;;16.80;6.20;;;;;;;7.13;95.60;101621.58;103688;1312;24190;-61
2021/12/15 11:09:42;;;;;;;20.40;7.60;;;;;;;7.14;95.56;101616.40;103652;1316;22825;-62
2021/12/15 11:12:17;;;;;;;18.10;6.70;;;;;;;7.16;95.54;101608.42;103732;1315;23143;-61
2021/12/15 11:14:52;;;;;;;19.20;6.70;;;;;;;7.17;95.48;101603.97;103872;1319;22600;-62
2021/12/15 11:17:27;;;;;;;18.00;6.90;;;;;;;7.20;95.39;101605.98;103785;1312;22788;-62
2021/12/15 11:20:16;;;;;;;17.90;6.50;;;;;;;7.23;95.45;101602.44;103713;1312;22593;-62
2021/12/15 11:22:57;;;;;;;21.00;6.70;;;;;;;7.26;95.48;101600.95;103743;1312;22600;-62
2021/12/15 11:25:46;;;;;;;17.60;5.60;;;;;;;7.28;95.26;101603.20;103824;1312;22587;-62
2021/12/15 11:28:22;;;;;;;16.90;6.10;;;;;;;7.32;95.26;101605.86;103745;1313;22513;-62
2021/12/15 11:31:00;;;;;;;19.10;6.10;;;;;;;7.34;95.28;101605.73;103759;1313;22639;-63
2021/12/15 11:33:33;;;;;;;18.30;6.30;;;;;;;7.37;95.31;101605.37;103851;1313;25274;-62
2021/12/15 11:36:09;;;;;;;17.00;5.60;;;;;;;7.39;95.22;101603.75;103818;1319;22710;-62
2021/12/15 11:38:43;;;;;;;18.70;6.80;;;;;;;7.41;95.09;101604.66;103712;1318;23880;-63
2021/12/15 11:41:16;;;;;;;18.30;7.40;;;;;;;7.44;95.13;101603.42;103772;1315;24264;-61
2021/12/15 11:43:52;;;;;;;16.90;6.00;;;;;;;7.45;94.88;101603.72;103786;1313;22614;-62
2021/12/15 11:46:28;;;;;;;17.70;6.90;;;;;;;7.46;94.97;101603.84;103907;1313;22943;-61
2021/12/15 11:49:02;;;;;;;21.20;7.70;;;;;;;7.48;94.87;101600.87;103938;1313;25404;-62
2021/12/15 11:51:43;;;;;;;19.30;7.00;;;;;;;7.50;94.72;101603.77;103835;1312;25306;-63
2021/12/15 11:54:21;;;;;;;18.60;7.30;;;;;;;7.51;94.72;101603.21;103721;1313;24220;-63
2021/12/15 11:56:55;;;;;;;22.50;9.00;;;;;;;7.51;94.80;101606.52;103938;1319;22739;-62
2021/12/15 11:59:29;;;;;;;18.70;6.80;;;;;;;7.52;94.70;101605.00;103835;1313;25457;-63
2021/12/15 12:02:07;;;;;;;20.90;7.80;;;;;;;7.51;94.42;101601.83;103812;1313;22555;-62
2021/12/15 12:04:44;;;;;;;25.50;9.20;;;;;;;7.51;94.44;101603.03;103858;1312;22574;-62
2021/12/15 12:07:26;;;;;;;21.00;7.70;;;;;;;7.52;94.35;101603.27;103785;1316;22647;-63
2021/12/15 12:10:01;;;;;;;21.40;8.50;;;;;;;7.51;94.23;101604.39;103706;1312;22676;-62
2021/12/15 12:12:38;;;;;;;22.20;9.20;;;;;;;7.51;94.33;101601.62;103852;1313;22534;-62
2021/12/15 12:15:14;;;;;;;22.50;8.60;;;;;;;7.53;94.34;101600.70;103737;1314;25689;-63
2021/12/15 12:17:49;;;;;;;22.90;9.00;;;;;;;7.54;94.45;101599.98;103875;1313;22534;-62
2021/12/15 12:20:23;;;;;;;18.30;6.70;;;;;;;7.56;94.28;101606.21;103820;1313;24264;-62
2021/12/15 12:22:57;;;;;;;18.70;6.00;;;;;;;7.57;94.30;101605.31;103805;1313;22559;-63
2021/12/15 12:25:34;;;;;;;19.40;6.80;;;;;;;7.57;94.25;101610.55;103909;1316;22597;-62
2021/12/15 12:28:08;;;;;;;17.20;6.20;;;;;;;7.59;94.49;101610.77;103805;1312;22714;-63
2021/12/15 12:30:42;;;;;;;17.00;6.50;;;;;;;7.59;94.16;101613.14;103735;1317;24260;-62
2021/12/15 12:33:17;;;;;;;19.50;7.00;;;;;;;7.61;94.32;101610.17;104554;1312;22601;-63
2021/12/15 12:35:54;;;;;;;17.00;6.40;;;;;;;7.62;94.32;101609.43;104835;1318;22865;-62
2021/12/15 12:38:30;;;;;;;20.30;8.30;;;;;;;7.62;94.21;101606.48;103956;1315;23137;-62